sensor_id;sensor_type;location;lat;lon;timestamp;pressure;altitude;pressure_sealevel;temperature;humidity
61488;BME280;47351;53.326;-6.298;2023-02-19T00:00:52;102246.11;;;9.08;77.41
61488;BME280;47351;53.326;-6.298;2023-02-19T00:03:41;102249.47;;;9.08;77.25
61488;BME280;47351;53.326;-6.298;2023-02-19T00:06:50;102254.83;;;9.08;77.30
61488;BME280;47351;53.326;-6.298;2023-02-19T00:09:41;102260.58;;;9.07;77.11
61488;BME280;47351;53.326;-6.298;2023-02-19T00:12:49;102260.61;;;9.07;77.04
61488;BME280;47351;53.326;-6.298;2023-02-19T00:15:49;102268.66;;;9.06;76.99
61488;BME280;47351;53.326;-6.298;2023-02-19T00:18:38;102273.11;;;9.06;77.07
61488;BME280;47351;53.326;-6.298;2023-02-19T00:21:29;102273.20;;;9.07;77.10
61488;BME280;47351;53.326;-6.298;2023-02-19T00:24:22;102280.13;;;9.07;77.03
61488;BME280;47351;53.326;-6.298;2023-02-19T00:27:10;102278.21;;;9.07;77.28
61488;BME280;47351;53.326;-6.298;2023-02-19T00:30:12;102272.48;;;9.05;77.36
61488;BME280;47351;53.326;-6.298;2023-02-19T00:33:21;102270.41;;;9.01;77.41
61488;BME280;47351;53.326;-6.298;2023-02-19T00:36:31;102269.30;;;8.97;77.60
61488;BME280;47351;53.326;-6.298;2023-02-19T00:39:35;102269.95;;;8.93;77.79
61488;BME280;47351;53.326;-6.298;2023-02-19T00:42:23;102273.39;;;8.90;77.85
61488;BME280;47351;53.326;-6.298;2023-02-19T00:45:32;102281.38;;;8.87;78.05
61488;BME280;47351;53.326;-6.298;2023-02-19T00:48:42;102288.14;;;8.85;78.18
61488;BME280;47351;53.326;-6.298;2023-02-19T00:51:51;102298.60;;;8.83;78.11
61488;BME280;47351;53.326;-6.298;2023-02-19T00:55:00;102304.80;;;8.81;78.25
61488;BME280;47351;53.326;-6.298;2023-02-19T00:57:51;102312.21;;;8.79;78.28
61488;BME280;47351;53.326;-6.298;2023-02-19T01:00:50;102312.23;;;8.76;78.30
61488;BME280;47351;53.326;-6.298;2023-02-19T01:03:59;102312.71;;;8.75;78.50
61488;BME280;47351;53.326;-6.298;2023-02-19T01:07:27;102308.83;;;8.74;78.57
61488;BME280;47351;53.326;-6.298;2023-02-19T01:10:37;102310.50;;;8.73;78.55
61488;BME280;47351;53.326;-6.298;2023-02-19T01:13:26;102310.41;;;8.72;78.76
61488;BME280;47351;53.326;-6.298;2023-02-19T01:16:36;102311.76;;;8.71;78.82
61488;BME280;47351;53.326;-6.298;2023-02-19T01:19:28;102305.98;;;8.69;78.83
61488;BME280;47351;53.326;-6.298;2023-02-19T01:22:30;102303.76;;;8.68;78.89
61488;BME280;47351;53.326;-6.298;2023-02-19T01:25:28;102297.80;;;8.66;78.90
61488;BME280;47351;53.326;-6.298;2023-02-19T01:28:17;102295.39;;;8.65;78.85
61488;BME280;47351;53.326;-6.298;2023-02-19T01:31:20;102289.98;;;8.64;78.86
61488;BME280;47351;53.326;-6.298;2023-02-19T01:34:29;102292.88;;;8.63;78.91
61488;BME280;47351;53.326;-6.298;2023-02-19T01:37:27;102297.56;;;8.62;78.98
61488;BME280;47351;53.326;-6.298;2023-02-19T01:40:25;102303.36;;;8.61;79.02
61488;BME280;47351;53.326;-6.298;2023-02-19T01:43:52;102314.94;;;8.58;78.96
61488;BME280;47351;53.326;-6.298;2023-02-19T01:46:43;102318.48;;;8.56;79.08
61488;BME280;47351;53.326;-6.298;2023-02-19T01:49:53;102327.48;;;8.54;79.09
61488;BME280;47351;53.326;-6.298;2023-02-19T01:53:04;102330.35;;;8.54;79.25
61488;BME280;47351;53.326;-6.298;2023-02-19T01:56:14;102327.11;;;8.55;79.19
61488;BME280;47351;53.326;-6.298;2023-02-19T01:59:18;102326.77;;;8.54;79.18
61488;BME280;47351;53.326;-6.298;2023-02-19T02:02:27;102321.27;;;8.54;79.18
61488;BME280;47351;53.326;-6.298;2023-02-19T02:05:42;102321.77;;;8.52;79.16
61488;BME280;47351;53.326;-6.298;2023-02-19T02:08:32;102322.48;;;8.49;79.04
61488;BME280;47351;53.326;-6.298;2023-02-19T02:12:00;102315.23;;;8.46;79.06
61488;BME280;47351;53.326;-6.298;2023-02-19T02:14:49;102319.05;;;8.45;79.06
61488;BME280;47351;53.326;-6.298;2023-02-19T02:17:45;102316.33;;;8.43;79.08
61488;BME280;47351;53.326;-6.298;2023-02-19T02:21:02;102312.29;;;8.42;79.20
61488;BME280;47351;53.326;-6.298;2023-02-19T02:24:15;102315.42;;;8.41;79.13
61488;BME280;47351;53.326;-6.298;2023-02-19T02:30:42;102330.34;;;8.33;79.00
61488;BME280;47351;53.326;-6.298;2023-02-19T02:33:53;102346.40;;;8.29;79.01
61488;BME280;47351;53.326;-6.298;2023-02-19T02:37:05;102359.46;;;8.28;79.00
61488;BME280;47351;53.326;-6.298;2023-02-19T02:40:07;102355.68;;;8.28;78.87
61488;BME280;47351;53.326;-6.298;2023-02-19T02:43:19;102350.20;;;8.28;78.87
61488;BME280;47351;53.326;-6.298;2023-02-19T02:46:29;102352.52;;;8.25;78.72
61488;BME280;47351;53.326;-6.298;2023-02-19T02:49:42;102354.80;;;8.21;78.64
61488;BME280;47351;53.326;-6.298;2023-02-19T02:53:16;102358.10;;;8.17;78.71
61488;BME280;47351;53.326;-6.298;2023-02-19T02:56:44;102360.59;;;8.14;78.79
61488;BME280;47351;53.326;-6.298;2023-02-19T02:59:54;102365.41;;;8.11;78.87
61488;BME280;47351;53.326;-6.298;2023-02-19T03:02:56;102367.61;;;8.07;78.89
61488;BME280;47351;53.326;-6.298;2023-02-19T03:06:05;102374.56;;;8.04;79.08
61488;BME280;47351;53.326;-6.298;2023-02-19T03:09:18;102375.49;;;8.03;79.33
61488;BME280;47351;53.326;-6.298;2023-02-19T03:12:13;102380.85;;;8.03;79.42
61488;BME280;47351;53.326;-6.298;2023-02-19T03:15:42;102378.40;;;8.03;79.58
61488;BME280;47351;53.326;-6.298;2023-02-19T03:19:12;102380.34;;;8.01;79.69
61488;BME280;47351;53.326;-6.298;2023-02-19T03:22:29;102389.36;;;7.98;79.77
61488;BME280;47351;53.326;-6.298;2023-02-19T03:25:39;102387.19;;;7.96;79.91
61488;BME280;47351;53.326;-6.298;2023-02-19T03:29:10;102381.73;;;7.93;79.94
61488;BME280;47351;53.326;-6.298;2023-02-19T03:32:34;102385.21;;;7.88;80.06
61488;BME280;47351;53.326;-6.298;2023-02-19T03:35:47;102382.42;;;7.85;80.23
61488;BME280;47351;53.326;-6.298;2023-02-19T03:39:22;102380.67;;;7.81;80.39
61488;BME280;47351;53.326;-6.298;2023-02-19T03:42:37;102384.41;;;7.81;80.74
61488;BME280;47351;53.326;-6.298;2023-02-19T03:45:52;102381.91;;;7.84;80.92
61488;BME280;47351;53.326;-6.298;2023-02-19T03:48:55;102382.83;;;7.86;80.93
61488;BME280;47351;53.326;-6.298;2023-02-19T03:52:07;102381.06;;;7.86;81.15
61488;BME280;47351;53.326;-6.298;2023-02-19T03:55:11;102379.70;;;7.86;81.38
61488;BME280;47351;53.326;-6.298;2023-02-19T03:58:19;102385.04;;;7.85;81.52
61488;BME280;47351;53.326;-6.298;2023-02-19T04:01:26;102382.85;;;7.86;81.74
61488;BME280;47351;53.326;-6.298;2023-02-19T04:04:28;102381.60;;;7.86;81.89
61488;BME280;47351;53.326;-6.298;2023-02-19T04:07:32;102396.07;;;7.88;81.98
61488;BME280;47351;53.326;-6.298;2023-02-19T04:10:44;102406.33;;;7.92;82.00
61488;BME280;47351;53.326;-6.298;2023-02-19T04:13:55;102409.05;;;7.96;82.12
61488;BME280;47351;53.326;-6.298;2023-02-19T04:17:08;102415.55;;;8.01;82.09
61488;BME280;47351;53.326;-6.298;2023-02-19T04:20:03;102412.23;;;8.02;82.08
61488;BME280;47351;53.326;-6.298;2023-02-19T04:22:54;102410.73;;;8.03;82.01
61488;BME280;47351;53.326;-6.298;2023-02-19T04:31:34;102411.15;;;8.02;82.25
61488;BME280;47351;53.326;-6.298;2023-02-19T04:40:12;102405.51;;;8.07;82.47
61488;BME280;47351;53.326;-6.298;2023-02-19T04:47:46;102432.05;;;8.12;82.59
61488;BME280;47351;53.326;-6.298;2023-02-19T04:51:50;102433.90;;;8.13;82.53
61488;BME280;47351;53.326;-6.298;2023-02-19T04:55:25;102436.72;;;8.17;82.68
61488;BME280;47351;53.326;-6.298;2023-02-19T05:14:51;102434.90;;;8.17;83.74
61488;BME280;47351;53.326;-6.298;2023-02-19T05:23:33;102408.95;;;8.14;84.19
61488;BME280;47351;53.326;-6.298;2023-02-19T05:26:27;102407.35;;;8.14;84.30
61488;BME280;47351;53.326;-6.298;2023-02-19T05:30:42;102414.53;;;8.16;84.68
61488;BME280;47351;53.326;-6.298;2023-02-19T05:42:17;102388.79;;;8.18;84.61
61488;BME280;47351;53.326;-6.298;2023-02-19T05:54:26;102371.28;;;8.13;84.69
61488;BME280;47351;53.326;-6.298;2023-02-19T05:57:59;102371.26;;;8.14;84.78
61488;BME280;47351;53.326;-6.298;2023-02-19T06:01:13;102384.21;;;8.15;84.68
61488;BME280;47351;53.326;-6.298;2023-02-19T06:08:27;102366.89;;;8.13;84.70
61488;BME280;47351;53.326;-6.298;2023-02-19T06:12:13;102338.33;;;8.09;84.74
61488;BME280;47351;53.326;-6.298;2023-02-19T06:16:18;102337.39;;;8.04;84.73
61488;BME280;47351;53.326;-6.298;2023-02-19T06:27:55;102342.89;;;8.00;85.33
61488;BME280;47351;53.326;-6.298;2023-02-19T06:31:16;102333.81;;;7.97;85.46
61488;BME280;47351;53.326;-6.298;2023-02-19T06:34:07;102322.15;;;7.93;85.36
61488;BME280;47351;53.326;-6.298;2023-02-19T06:38:14;102316.96;;;7.88;85.49
61488;BME280;47351;53.326;-6.298;2023-02-19T06:41:30;102316.83;;;7.84;85.72
61488;BME280;47351;53.326;-6.298;2023-02-19T06:44:59;102321.62;;;7.82;85.91
61488;BME280;47351;53.326;-6.298;2023-02-19T06:49:04;102323.21;;;7.79;86.17
61488;BME280;47351;53.326;-6.298;2023-02-19T06:53:10;102323.58;;;7.77;86.52
61488;BME280;47351;53.326;-6.298;2023-02-19T06:57:15;102330.38;;;7.73;86.69
61488;BME280;47351;53.326;-6.298;2023-02-19T07:01:25;102329.90;;;7.72;86.99
61488;BME280;47351;53.326;-6.298;2023-02-19T07:04:35;102330.03;;;7.73;87.12
61488;BME280;47351;53.326;-6.298;2023-02-19T07:07:45;102327.07;;;7.75;87.21
61488;BME280;47351;53.326;-6.298;2023-02-19T07:10:59;102325.70;;;7.77;87.23
61488;BME280;47351;53.326;-6.298;2023-02-19T07:15:05;102334.86;;;7.78;87.43
61488;BME280;47351;53.326;-6.298;2023-02-19T07:19:09;102355.31;;;7.78;87.65
61488;BME280;47351;53.326;-6.298;2023-02-19T07:26:02;102363.70;;;7.77;87.53
61488;BME280;47351;53.326;-6.298;2023-02-19T07:29:13;102363.59;;;7.79;87.41
61488;BME280;47351;53.326;-6.298;2023-02-19T07:32:25;102367.58;;;7.81;87.46
61488;BME280;47351;53.326;-6.298;2023-02-19T07:35:45;102374.41;;;7.82;87.51
61488;BME280;47351;53.326;-6.298;2023-02-19T07:39:15;102385.58;;;7.83;87.45
61488;BME280;47351;53.326;-6.298;2023-02-19T07:43:02;102393.25;;;7.82;87.47
61488;BME280;47351;53.326;-6.298;2023-02-19T07:46:33;102398.80;;;7.81;87.42
61488;BME280;47351;53.326;-6.298;2023-02-19T07:50:05;102393.27;;;7.82;87.42
61488;BME280;47351;53.326;-6.298;2023-02-19T07:54:10;102394.67;;;7.82;87.40
61488;BME280;47351;53.326;-6.298;2023-02-19T07:58:21;102395.66;;;7.83;87.44
61488;BME280;47351;53.326;-6.298;2023-02-19T08:02:12;102396.65;;;7.84;87.64
61488;BME280;47351;53.326;-6.298;2023-02-19T08:06:20;102407.24;;;7.85;87.61
61488;BME280;47351;53.326;-6.298;2023-02-19T08:10:52;102399.37;;;7.86;87.45
61488;BME280;47351;53.326;-6.298;2023-02-19T08:14:59;102397.30;;;7.88;87.54
61488;BME280;47351;53.326;-6.298;2023-02-19T08:19:03;102399.36;;;7.93;87.48
61488;BME280;47351;53.326;-6.298;2023-02-19T08:23:09;102399.02;;;7.98;87.52
61488;BME280;47351;53.326;-6.298;2023-02-19T08:26:56;102405.62;;;8.02;87.52
61488;BME280;47351;53.326;-6.298;2023-02-19T08:30:46;102401.09;;;8.06;87.59
61488;BME280;47351;53.326;-6.298;2023-02-19T08:34:52;102404.61;;;8.13;87.42
61488;BME280;47351;53.326;-6.298;2023-02-19T08:38:56;102408.04;;;8.17;87.38
61488;BME280;47351;53.326;-6.298;2023-02-19T08:43:02;102412.98;;;8.21;87.40
61488;BME280;47351;53.326;-6.298;2023-02-19T08:50:54;102386.34;;;8.28;87.36
61488;BME280;47351;53.326;-6.298;2023-02-19T09:03:08;102378.44;;;8.31;87.23
61488;BME280;47351;53.326;-6.298;2023-02-19T09:11:05;102385.96;;;8.36;87.01
61488;BME280;47351;53.326;-6.298;2023-02-19T09:14:59;102392.09;;;8.38;86.94
61488;BME280;47351;53.326;-6.298;2023-02-19T09:26:48;102395.27;;;8.54;86.52
61488;BME280;47351;53.326;-6.298;2023-02-19T09:34:49;102384.92;;;8.83;86.02
61488;BME280;47351;53.326;-6.298;2023-02-19T09:38:55;102387.81;;;9.06;85.50
61488;BME280;47351;53.326;-6.298;2023-02-19T09:43:01;102379.33;;;9.30;84.78
61488;BME280;47351;53.326;-6.298;2023-02-19T09:47:18;102388.85;;;9.44;84.30
61488;BME280;47351;53.326;-6.298;2023-02-19T09:55:56;102406.02;;;9.58;83.51
61488;BME280;47351;53.326;-6.298;2023-02-19T09:59:25;102412.66;;;9.55;83.44
61488;BME280;47351;53.326;-6.298;2023-02-19T10:11:51;102416.17;;;9.61;82.94
61488;BME280;47351;53.326;-6.298;2023-02-19T10:15:58;102416.14;;;9.61;82.90
61488;BME280;47351;53.326;-6.298;2023-02-19T10:20:02;102422.81;;;9.58;82.88
61488;BME280;47351;53.326;-6.298;2023-02-19T10:24:09;102425.14;;;9.58;82.81
61488;BME280;47351;53.326;-6.298;2023-02-19T10:28:12;102421.88;;;9.68;82.72
61488;BME280;47351;53.326;-6.298;2023-02-19T10:32:20;102417.31;;;9.89;82.34
61488;BME280;47351;53.326;-6.298;2023-02-19T10:35:12;102417.39;;;10.01;81.70
61488;BME280;47351;53.326;-6.298;2023-02-19T10:38:03;102415.29;;;10.03;81.27
61488;BME280;47351;53.326;-6.298;2023-02-19T10:41:02;102417.55;;;10.03;81.20
61488;BME280;47351;53.326;-6.298;2023-02-19T10:43:53;102423.73;;;10.04;80.88
61488;BME280;47351;53.326;-6.298;2023-02-19T10:46:52;102422.78;;;10.05;81.04
61488;BME280;47351;53.326;-6.298;2023-02-19T10:49:45;102417.48;;;10.04;81.10
61488;BME280;47351;53.326;-6.298;2023-02-19T10:52:36;102419.83;;;10.06;81.14
61488;BME280;47351;53.326;-6.298;2023-02-19T10:55:28;102421.14;;;10.10;80.65
61488;BME280;47351;53.326;-6.298;2023-02-19T10:58:22;102422.42;;;10.14;80.25
61488;BME280;47351;53.326;-6.298;2023-02-19T11:01:16;102420.56;;;10.20;80.03
61488;BME280;47351;53.326;-6.298;2023-02-19T11:04:15;102417.30;;;10.24;80.06
61488;BME280;47351;53.326;-6.298;2023-02-19T11:07:10;102412.53;;;10.28;80.03
61488;BME280;47351;53.326;-6.298;2023-02-19T11:10:05;102417.13;;;10.34;80.02
61488;BME280;47351;53.326;-6.298;2023-02-19T11:12:59;102419.03;;;10.41;79.79
61488;BME280;47351;53.326;-6.298;2023-02-19T11:15:52;102416.64;;;10.59;79.46
61488;BME280;47351;53.326;-6.298;2023-02-19T11:18:41;102420.09;;;10.84;78.85
61488;BME280;47351;53.326;-6.298;2023-02-19T11:21:34;102420.32;;;11.02;78.02
61488;BME280;47351;53.326;-6.298;2023-02-19T11:24:41;102412.79;;;11.20;77.41
61488;BME280;47351;53.326;-6.298;2023-02-19T11:27:35;102409.48;;;11.39;76.66
61488;BME280;47351;53.326;-6.298;2023-02-19T11:30:42;102401.02;;;11.45;75.64
61488;BME280;47351;53.326;-6.298;2023-02-19T11:33:34;102398.92;;;11.51;75.03
61488;BME280;47351;53.326;-6.298;2023-02-19T11:36:33;102393.26;;;11.77;74.48
61488;BME280;47351;53.326;-6.298;2023-02-19T11:39:24;102389.47;;;12.32;73.60
61488;BME280;47351;53.326;-6.298;2023-02-19T11:45:33;102401.35;;;12.84;71.14
61488;BME280;47351;53.326;-6.298;2023-02-19T11:51:53;102395.20;;;14.39;67.34
61488;BME280;47351;53.326;-6.298;2023-02-19T11:55:02;102381.30;;;18.22;58.26
61488;BME280;47351;53.326;-6.298;2023-02-19T11:57:57;102368.42;;;18.35;56.64
61488;BME280;47351;53.326;-6.298;2023-02-19T12:01:01;102370.66;;;17.64;57.98
61488;BME280;47351;53.326;-6.298;2023-02-19T12:03:59;102382.67;;;16.70;57.11
61488;BME280;47351;53.326;-6.298;2023-02-19T12:07:30;102371.52;;;16.15;57.18
61488;BME280;47351;53.326;-6.298;2023-02-19T12:10:28;102363.14;;;16.28;56.81
61488;BME280;47351;53.326;-6.298;2023-02-19T12:13:26;102353.38;;;16.36;57.10
61488;BME280;47351;53.326;-6.298;2023-02-19T12:16:20;102337.18;;;17.53;55.62
61488;BME280;47351;53.326;-6.298;2023-02-19T12:19:18;102331.55;;;18.12;53.70
61488;BME280;47351;53.326;-6.298;2023-02-19T12:22:44;102328.90;;;18.46;51.75
61488;BME280;47351;53.326;-6.298;2023-02-19T12:25:43;102326.55;;;17.90;51.49
61488;BME280;47351;53.326;-6.298;2023-02-19T12:34:50;102309.27;;;16.25;54.48
61488;BME280;47351;53.326;-6.298;2023-02-19T12:38:08;102298.71;;;16.20;54.61
61488;BME280;47351;53.326;-6.298;2023-02-19T12:44:12;102274.49;;;16.19;53.48
61488;BME280;47351;53.326;-6.298;2023-02-19T12:47:04;102251.77;;;17.04;52.08
61488;BME280;47351;53.326;-6.298;2023-02-19T12:49:55;102230.64;;;19.78;47.72
61488;BME280;47351;53.326;-6.298;2023-02-19T12:52:50;102214.43;;;22.02;44.76
61488;BME280;47351;53.326;-6.298;2023-02-19T12:55:43;102209.07;;;24.11;42.09
61488;BME280;47351;53.326;-6.298;2023-02-19T12:58:47;102201.89;;;25.45;39.55
61488;BME280;47351;53.326;-6.298;2023-02-19T13:01:41;102203.92;;;25.14;37.86
61488;BME280;47351;53.326;-6.298;2023-02-19T13:04:36;102203.96;;;25.02;36.75
61488;BME280;47351;53.326;-6.298;2023-02-19T13:07:47;102196.70;;;25.01;36.97
61488;BME280;47351;53.326;-6.298;2023-02-19T13:10:42;102183.89;;;24.84;36.81
61488;BME280;47351;53.326;-6.298;2023-02-19T13:13:33;102188.27;;;24.87;35.95
61488;BME280;47351;53.326;-6.298;2023-02-19T13:16:36;102177.36;;;24.99;34.88
61488;BME280;47351;53.326;-6.298;2023-02-19T13:19:30;102175.52;;;24.80;35.50
61488;BME280;47351;53.326;-6.298;2023-02-19T13:22:23;102167.23;;;25.64;35.62
61488;BME280;47351;53.326;-6.298;2023-02-19T13:25:38;102160.17;;;26.06;34.47
61488;BME280;47351;53.326;-6.298;2023-02-19T13:36:30;102179.02;;;20.83;39.40
61488;BME280;47351;53.326;-6.298;2023-02-19T13:39:46;102183.02;;;20.08;40.56
61488;BME280;47351;53.326;-6.298;2023-02-19T13:43:21;102178.90;;;19.33;42.23
61488;BME280;47351;53.326;-6.298;2023-02-19T13:50:37;102178.23;;;19.31;42.52
61488;BME280;47351;53.326;-6.298;2023-02-19T13:54:20;102160.51;;;20.56;40.94
61488;BME280;47351;53.326;-6.298;2023-02-19T14:00:48;102158.46;;;22.81;37.02
61488;BME280;47351;53.326;-6.298;2023-02-19T14:04:06;102166.17;;;23.37;36.12
61488;BME280;47351;53.326;-6.298;2023-02-19T14:14:12;102161.46;;;23.64;36.38
61488;BME280;47351;53.326;-6.298;2023-02-19T14:17:41;102161.55;;;23.67;35.67
61488;BME280;47351;53.326;-6.298;2023-02-19T14:20:52;102145.27;;;23.67;35.51
61488;BME280;47351;53.326;-6.298;2023-02-19T14:24:41;102139.94;;;22.72;36.84
61488;BME280;47351;53.326;-6.298;2023-02-19T14:27:52;102145.69;;;20.99;38.86
61488;BME280;47351;53.326;-6.298;2023-02-19T14:31:07;102147.66;;;20.07;40.09
61488;BME280;47351;53.326;-6.298;2023-02-19T14:34:37;102128.56;;;20.83;39.67
61488;BME280;47351;53.326;-6.298;2023-02-19T14:38:08;102132.45;;;21.71;38.71
61488;BME280;47351;53.326;-6.298;2023-02-19T14:43:19;102127.09;;;22.02;37.67
61488;BME280;47351;53.326;-6.298;2023-02-19T14:46:13;102117.44;;;21.55;37.93
61488;BME280;47351;53.326;-6.298;2023-02-19T14:49:04;102120.29;;;20.05;40.02
61488;BME280;47351;53.326;-6.298;2023-02-19T14:51:58;102109.24;;;19.68;41.00
61488;BME280;47351;53.326;-6.298;2023-02-19T14:54:48;102090.31;;;20.12;40.68
61488;BME280;47351;53.326;-6.298;2023-02-19T14:57:42;102075.38;;;20.30;40.19
61488;BME280;47351;53.326;-6.298;2023-02-19T15:00:33;102068.21;;;20.22;40.16
61488;BME280;47351;53.326;-6.298;2023-02-19T15:03:24;102063.94;;;19.95;40.46
61488;BME280;47351;53.326;-6.298;2023-02-19T15:06:14;102059.81;;;19.66;41.27
61488;BME280;47351;53.326;-6.298;2023-02-19T15:09:05;102056.79;;;19.52;42.10
61488;BME280;47351;53.326;-6.298;2023-02-19T15:11:57;102052.56;;;19.40;42.43
61488;BME280;47351;53.326;-6.298;2023-02-19T15:14:46;102045.73;;;19.11;42.36
61488;BME280;47351;53.326;-6.298;2023-02-19T15:17:35;102038.70;;;18.90;43.44
61488;BME280;47351;53.326;-6.298;2023-02-19T15:20:27;102033.45;;;18.77;44.04
61488;BME280;47351;53.326;-6.298;2023-02-19T15:23:20;102028.36;;;18.52;44.17
61488;BME280;47351;53.326;-6.298;2023-02-19T15:26:14;102022.79;;;18.24;44.72
61488;BME280;47351;53.326;-6.298;2023-02-19T15:29:09;102021.08;;;17.93;45.37
61488;BME280;47351;53.326;-6.298;2023-02-19T15:31:59;102021.65;;;17.58;45.94
61488;BME280;47351;53.326;-6.298;2023-02-19T15:34:55;102019.80;;;17.22;46.75
61488;BME280;47351;53.326;-6.298;2023-02-19T15:37:44;102005.09;;;17.02;47.76
61488;BME280;47351;53.326;-6.298;2023-02-19T15:40:33;102003.46;;;16.83;48.21
61488;BME280;47351;53.326;-6.298;2023-02-19T15:43:23;102009.52;;;16.61;48.74
61488;BME280;47351;53.326;-6.298;2023-02-19T15:46:14;102014.48;;;16.40;49.42
61488;BME280;47351;53.326;-6.298;2023-02-19T15:49:05;102016.30;;;16.27;50.16
61488;BME280;47351;53.326;-6.298;2023-02-19T15:51:56;102010.69;;;16.15;50.48
61488;BME280;47351;53.326;-6.298;2023-02-19T15:54:51;102016.91;;;15.97;51.01
61488;BME280;47351;53.326;-6.298;2023-02-19T15:57:46;102006.66;;;15.76;51.68
61488;BME280;47351;53.326;-6.298;2023-02-19T16:00:39;102002.19;;;15.65;52.27
61488;BME280;47351;53.326;-6.298;2023-02-19T16:03:28;101998.27;;;15.58;52.89
61488;BME280;47351;53.326;-6.298;2023-02-19T16:06:18;101997.55;;;15.46;53.29
61488;BME280;47351;53.326;-6.298;2023-02-19T16:09:18;101991.21;;;15.27;53.81
61488;BME280;47351;53.326;-6.298;2023-02-19T16:12:19;101991.05;;;14.99;54.45
61488;BME280;47351;53.326;-6.298;2023-02-19T16:15:12;101988.41;;;14.77;55.36
61488;BME280;47351;53.326;-6.298;2023-02-19T16:18:11;101984.11;;;14.46;56.10
61488;BME280;47351;53.326;-6.298;2023-02-19T16:21:05;101981.16;;;14.13;57.07
61488;BME280;47351;53.326;-6.298;2023-02-19T16:23:55;101979.73;;;13.90;58.15
61488;BME280;47351;53.326;-6.298;2023-02-19T16:26:46;101977.27;;;13.77;58.91
61488;BME280;47351;53.326;-6.298;2023-02-19T16:29:35;101969.63;;;13.76;59.44
61488;BME280;47351;53.326;-6.298;2023-02-19T16:32:29;101963.79;;;13.77;59.77
61488;BME280;47351;53.326;-6.298;2023-02-19T16:35:34;101956.38;;;13.74;59.97
61488;BME280;47351;53.326;-6.298;2023-02-19T16:38:26;101959.17;;;13.69;60.47
61488;BME280;47351;53.326;-6.298;2023-02-19T16:41:17;101951.72;;;13.57;60.72
61488;BME280;47351;53.326;-6.298;2023-02-19T16:44:29;101946.04;;;13.36;61.35
61488;BME280;47351;53.326;-6.298;2023-02-19T16:47:38;101950.27;;;13.16;62.33
61488;BME280;47351;53.326;-6.298;2023-02-19T16:50:51;101946.56;;;12.97;63.05
61488;BME280;47351;53.326;-6.298;2023-02-19T16:53:53;101943.88;;;12.80;64.03
61488;BME280;47351;53.326;-6.298;2023-02-19T16:56:53;101943.91;;;12.67;64.34
61488;BME280;47351;53.326;-6.298;2023-02-19T16:59:42;101940.45;;;12.55;65.17
61488;BME280;47351;53.326;-6.298;2023-02-19T17:02:33;101939.35;;;12.46;65.60
61488;BME280;47351;53.326;-6.298;2023-02-19T17:05:42;101941.14;;;12.36;66.00
61488;BME280;47351;53.326;-6.298;2023-02-19T17:08:32;101947.52;;;12.27;66.57
61488;BME280;47351;53.326;-6.298;2023-02-19T17:11:34;101942.60;;;12.20;67.23
61488;BME280;47351;53.326;-6.298;2023-02-19T17:14:23;101939.34;;;12.15;67.64
61488;BME280;47351;53.326;-6.298;2023-02-19T17:17:32;101938.45;;;12.11;68.14
61488;BME280;47351;53.326;-6.298;2023-02-19T17:20:41;101940.36;;;12.05;68.89
61488;BME280;47351;53.326;-6.298;2023-02-19T17:23:45;101942.03;;;12.00;69.48
61488;BME280;47351;53.326;-6.298;2023-02-19T17:26:53;101937.04;;;11.96;69.53
61488;BME280;47351;53.326;-6.298;2023-02-19T17:30:02;101938.50;;;11.92;70.25
61488;BME280;47351;53.326;-6.298;2023-02-19T17:32:56;101935.46;;;11.90;70.64
61488;BME280;47351;53.326;-6.298;2023-02-19T17:36:05;101937.23;;;11.88;70.74
61488;BME280;47351;53.326;-6.298;2023-02-19T17:38:54;101935.16;;;11.85;71.35
61488;BME280;47351;53.326;-6.298;2023-02-19T17:42:00;101944.45;;;11.83;71.65
61488;BME280;47351;53.326;-6.298;2023-02-19T17:45:01;101946.70;;;11.82;71.73
61488;BME280;47351;53.326;-6.298;2023-02-19T17:48:11;101951.18;;;11.84;72.12
61488;BME280;47351;53.326;-6.298;2023-02-19T17:51:20;101951.77;;;11.88;72.40
61488;BME280;47351;53.326;-6.298;2023-02-19T17:54:29;101947.45;;;11.92;72.51
61488;BME280;47351;53.326;-6.298;2023-02-19T17:57:17;101952.00;;;11.95;72.58
61488;BME280;47351;53.326;-6.298;2023-02-19T18:00:21;101945.88;;;11.97;73.00
61488;BME280;47351;53.326;-6.298;2023-02-19T18:03:21;101943.36;;;11.99;72.99
61488;BME280;47351;53.326;-6.298;2023-02-19T18:06:17;101934.13;;;12.01;72.97
61488;BME280;47351;53.326;-6.298;2023-02-19T18:09:26;101939.48;;;12.03;73.08
61488;BME280;47351;53.326;-6.298;2023-02-19T18:12:17;101939.94;;;12.05;73.48
61488;BME280;47351;53.326;-6.298;2023-02-19T18:15:26;101942.27;;;12.08;73.75
61488;BME280;47351;53.326;-6.298;2023-02-19T18:18:21;101948.96;;;12.09;73.57
61488;BME280;47351;53.326;-6.298;2023-02-19T18:21:11;101951.92;;;12.10;73.73
61488;BME280;47351;53.326;-6.298;2023-02-19T18:24:08;101949.58;;;12.10;73.64
61488;BME280;47351;53.326;-6.298;2023-02-19T18:27:10;101955.86;;;12.10;73.68
61488;BME280;47351;53.326;-6.298;2023-02-19T18:29:59;101956.12;;;12.11;73.75
61488;BME280;47351;53.326;-6.298;2023-02-19T18:33:08;101946.11;;;12.13;74.01
61488;BME280;47351;53.326;-6.298;2023-02-19T18:36:10;101947.52;;;12.13;74.24
61488;BME280;47351;53.326;-6.298;2023-02-19T18:39:19;101943.23;;;12.13;74.31
61488;BME280;47351;53.326;-6.298;2023-02-19T18:42:08;101940.89;;;12.13;74.44
61488;BME280;47351;53.326;-6.298;2023-02-19T18:45:17;101940.94;;;12.13;74.46
61488;BME280;47351;53.326;-6.298;2023-02-19T18:48:26;101938.92;;;12.13;74.59
61488;BME280;47351;53.326;-6.298;2023-02-19T18:51:35;101938.30;;;12.14;75.01
61488;BME280;47351;53.326;-6.298;2023-02-19T18:54:34;101936.57;;;12.16;75.32
61488;BME280;47351;53.326;-6.298;2023-02-19T18:57:43;101935.31;;;12.15;75.32
61488;BME280;47351;53.326;-6.298;2023-02-19T19:00:37;101930.73;;;12.15;75.28
61488;BME280;47351;53.326;-6.298;2023-02-19T19:03:46;101931.33;;;12.14;75.42
61488;BME280;47351;53.326;-6.298;2023-02-19T19:06:55;101934.30;;;12.15;75.77
61488;BME280;47351;53.326;-6.298;2023-02-19T19:10:05;101932.80;;;12.16;75.86